Time;durP1;ratioP1;P1;durP2;ratioP2;P2;SDS_P1;SDS_P2;PMS_P1;PMS_P2;Temp;Humidity;BMP_temperature;BMP_pressure;BME280_temperature;BME280_humidity;BME280_pressure;Samples;Min_cycle;Max_cycle;Signal;HPM_P1;HPM_P2
2020/12/27 00:00:48;;;;;;;10.38;6.07;;;;;;;1.85;78.27;100482.50;4965157;28;20136;-49
2020/12/27 00:03:15;;;;;;;12.82;7.35;;;;;;;1.93;78.43;100472.06;4963937;28;20476;-49
2020/12/27 00:05:43;;;;;;;8.55;5.82;;;;;;;2.00;77.67;100461.56;4963791;28;20050;-50
2020/12/27 00:08:10;;;;;;;8.57;5.80;;;;;;;1.90;77.73;100453.38;4964153;28;20497;-50
2020/12/27 00:10:37;;;;;;;10.18;6.55;;;;;;;1.91;78.17;100450.94;4964061;28;20047;-46
2020/12/27 00:13:04;;;;;;;9.52;6.18;;;;;;;1.77;77.63;100447.63;4964511;28;20566;-49
2020/12/27 00:15:30;;;;;;;10.68;5.90;;;;;;;1.65;78.37;100438.47;4964249;28;20506;-50
2020/12/27 00:17:57;;;;;;;10.40;6.30;;;;;;;1.64;78.33;100432.56;4965766;28;20049;-47
2020/12/27 00:20:23;;;;;;;10.48;6.22;;;;;;;1.63;78.67;100435.00;4965550;28;20043;-52
2020/12/27 00:22:50;;;;;;;11.20;5.95;;;;;;;1.60;78.70;100424.72;4968947;28;20049;-47
2020/12/27 00:25:16;;;;;;;10.73;6.50;;;;;;;1.60;78.58;100424.72;4969388;28;20069;-48
2020/12/27 00:27:43;;;;;;;9.75;6.43;;;;;;;1.54;79.17;100410.13;4969874;28;20043;-51
2020/12/27 00:30:09;;;;;;;11.23;6.35;;;;;;;1.51;79.05;100409.94;4970210;28;20428;-46
2020/12/27 00:32:36;;;;;;;10.82;6.32;;;;;;;1.46;79.67;100408.81;4969663;28;20046;-46
2020/12/27 00:35:03;;;;;;;10.65;6.95;;;;;;;1.53;79.21;100401.69;4970199;28;20493;-49
2020/12/27 00:37:31;;;;;;;10.38;6.22;;;;;;;1.45;79.55;100392.81;4969733;28;20091;-50
2020/12/27 00:39:58;;;;;;;8.50;6.38;;;;;;;1.50;78.97;100385.50;4969120;28;20057;-48
2020/12/27 00:42:25;;;;;;;8.90;5.95;;;;;;;1.48;78.84;100384.56;4969243;28;20075;-51
2020/12/27 00:44:52;;;;;;;11.75;6.95;;;;;;;1.43;79.27;100386.81;4969073;28;20046;-48
2020/12/27 00:47:18;;;;;;;12.45;6.85;;;;;;;1.32;79.74;100382.78;4968516;28;20046;-49
2020/12/27 00:49:45;;;;;;;10.25;6.88;;;;;;;1.42;79.40;100381.66;4968717;28;20047;-50
2020/12/27 00:52:11;;;;;;;11.60;6.53;;;;;;;1.42;79.16;100382.53;4968665;28;20058;-47
2020/12/27 00:54:38;;;;;;;9.88;6.30;;;;;;;1.48;78.76;100382.03;4968649;28;20047;-48
2020/12/27 00:57:04;;;;;;;9.13;5.95;;;;;;;1.47;78.46;100375.22;4968143;28;20047;-50
2020/12/27 00:59:31;;;;;;;8.00;5.72;;;;;;;1.50;78.53;100366.19;4968526;28;20059;-50
2020/12/27 01:01:58;;;;;;;9.85;6.32;;;;;;;1.40;78.76;100356.38;4969134;28;20142;-47
2020/12/27 01:04:24;;;;;;;11.32;6.40;;;;;;;1.46;78.44;100355.81;4968653;28;20761;-52
2020/12/27 01:06:51;;;;;;;9.90;6.03;;;;;;;1.47;78.04;100358.44;4968377;28;20050;-52
2020/12/27 01:09:17;;;;;;;8.00;5.90;;;;;;;1.44;78.47;100355.75;4968272;28;20054;-48
2020/12/27 01:11:47;;;;;;;9.65;6.25;;;;;;;1.52;78.26;100346.06;4968348;28;20050;-50
2020/12/27 01:14:14;;;;;;;10.45;5.95;;;;;;;1.41;78.38;100342.09;4968290;28;20067;-53
2020/12/27 01:16:47;;;;;;;7.97;5.82;;;;;;;1.47;78.35;100334.84;4968028;28;20059;-52
2020/12/27 01:19:13;;;;;;;9.98;6.53;;;;;;;1.41;78.03;100327.81;4968305;28;20051;-48
2020/12/27 01:21:41;;;;;;;10.80;6.30;;;;;;;1.47;78.02;100328.16;4967975;28;20134;-50
2020/12/27 01:24:08;;;;;;;8.48;5.05;;;;;;;1.46;78.27;100321.38;4968021;28;20050;-52
2020/12/27 01:26:35;;;;;;;9.82;6.13;;;;;;;1.47;78.03;100319.72;4968368;28;20076;-47
2020/12/27 01:29:03;;;;;;;8.32;5.18;;;;;;;1.38;78.37;100315.03;4967281;28;20058;-48
2020/12/27 01:31:30;;;;;;;7.90;5.30;;;;;;;1.41;78.50;100309.28;4968492;28;20046;-50
2020/12/27 01:33:56;;;;;;;10.15;6.00;;;;;;;1.48;78.22;100313.91;4967141;28;20050;-48
2020/12/27 01:36:31;;;;;;;6.95;4.97;;;;;;;1.45;77.43;100309.56;4967787;28;20070;-55
2020/12/27 01:38:59;;;;;;;7.30;5.22;;;;;;;1.47;78.33;100302.94;4965560;28;20571;-48
2020/12/27 01:41:26;;;;;;;9.25;5.78;;;;;;;1.49;78.11;100311.47;4968051;28;20121;-49
2020/12/27 01:44:08;;;;;;;8.43;5.40;;;;;;;1.46;78.27;100298.66;4967915;28;20070;-55
2020/12/27 01:46:38;;;;;;;9.07;5.80;;;;;;;1.42;78.41;100296.75;4965216;28;20476;-51
2020/12/27 01:49:06;;;;;;;8.43;5.90;;;;;;;1.43;78.46;100285.00;4967472;28;20046;-49
2020/12/27 01:51:33;;;;;;;9.75;5.40;;;;;;;1.44;77.95;100281.72;4967628;28;20050;-55
2020/12/27 01:54:00;;;;;;;8.45;5.68;;;;;;;1.44;78.43;100264.06;4968185;28;20050;-52
2020/12/27 01:56:41;;;;;;;11.18;6.60;;;;;;;1.35;78.47;100264.44;4967467;28;20082;-48
2020/12/27 01:59:17;;;;;;;8.88;5.80;;;;;;;1.36;78.47;100245.97;4966343;28;20616;-52
2020/12/27 02:01:44;;;;;;;7.25;5.10;;;;;;;1.39;78.09;100240.25;4967349;28;20540;-51
2020/12/27 02:04:11;;;;;;;10.18;5.85;;;;;;;1.41;77.75;100228.56;4967283;28;20054;-52
2020/12/27 02:06:42;;;;;;;8.93;5.90;;;;;;;1.38;77.63;100224.22;4966908;28;20121;-52
2020/12/27 02:09:09;;;;;;;11.63;4.97;;;;;;;1.43;77.88;100219.44;4967070;28;20113;-51
2020/12/27 02:11:35;;;;;;;11.70;6.00;;;;;;;1.39;77.79;100209.97;4967505;28;20106;-48
2020/12/27 02:14:01;;;;;;;9.02;5.72;;;;;;;1.34;77.94;100201.28;4967200;28;20198;-53
2020/12/27 02:16:30;;;;;;;7.93;5.40;;;;;;;1.43;77.70;100207.72;4967343;28;20074;-52
2020/12/27 02:19:01;;;;;;;8.57;4.85;;;;;;;1.43;77.43;100207.72;4967286;28;20575;-55
2020/12/27 02:21:28;;;;;;;9.13;5.90;;;;;;;1.42;77.19;100198.38;4967523;28;20055;-51
2020/12/27 02:23:56;;;;;;;10.85;5.50;;;;;;;1.36;77.68;100205.63;4964448;28;20117;-50
2020/12/27 02:26:24;;;;;;;8.63;5.15;;;;;;;1.45;77.44;100191.00;4962921;28;20050;-51
2020/12/27 02:28:51;;;;;;;7.85;5.18;;;;;;;1.49;77.20;100187.84;4967043;28;20061;-52
2020/12/27 02:31:21;;;;;;;5.82;4.53;;;;;;;1.46;76.77;100181.75;4966512;28;20047;-53
2020/12/27 02:33:47;;;;;;;9.27;4.88;;;;;;;1.44;77.33;100186.72;4966826;28;20054;-48
2020/12/27 02:36:14;;;;;;;7.03;4.47;;;;;;;1.46;76.98;100185.16;4966508;28;20512;-53
2020/12/27 02:38:40;;;;;;;8.45;4.82;;;;;;;1.44;76.96;100183.34;4966744;28;20042;-49
2020/12/27 02:41:16;;;;;;;7.85;4.63;;;;;;;1.34;77.35;100164.34;4966636;28;20074;-49
2020/12/27 02:43:43;;;;;;;8.88;5.38;;;;;;;1.44;76.60;100150.56;4966736;28;20051;-49
2020/12/27 02:46:21;;;;;;;8.82;4.57;;;;;;;1.47;76.72;100148.16;4966385;28;20094;-52
2020/12/27 02:48:48;;;;;;;7.70;4.57;;;;;;;1.42;76.81;100145.41;4966412;28;20046;-50
2020/12/27 02:51:16;;;;;;;7.55;4.72;;;;;;;1.43;77.50;100129.50;4966301;28;20142;-53
2020/12/27 02:53:48;;;;;;;7.35;4.72;;;;;;;1.43;76.22;100118.53;4966302;28;20046;-51
2020/12/27 02:56:23;;;;;;;5.60;4.35;;;;;;;1.44;76.80;100128.72;4966297;28;20086;-50
2020/12/27 02:58:50;;;;;;;5.97;4.03;;;;;;;1.37;76.93;100111.50;4966399;28;20070;-46
2020/12/27 03:01:17;;;;;;;8.75;4.82;;;;;;;1.42;76.66;100101.66;4966334;28;20481;-51
2020/12/27 03:03:44;;;;;;;10.75;5.07;;;;;;;1.48;76.20;100102.88;4966377;28;20160;-49
2020/12/27 03:06:25;;;;;;;7.80;4.63;;;;;;;1.39;76.56;100104.03;4962436;28;20050;-49
2020/12/27 03:08:55;;;;;;;8.77;4.70;;;;;;;1.39;76.36;100088.91;4966445;28;20109;-47
2020/12/27 03:11:25;;;;;;;8.85;4.45;;;;;;;1.38;76.68;100093.06;4962186;28;20138;-49
2020/12/27 03:13:52;;;;;;;6.03;4.10;;;;;;;1.41;75.76;100082.28;4966081;28;20054;-51
2020/12/27 03:16:20;;;;;;;6.15;4.30;;;;;;;1.45;75.80;100074.09;4965691;28;20051;-49
2020/12/27 03:18:47;;;;;;;7.97;5.07;;;;;;;1.39;76.47;100077.16;4966184;28;20055;-53
2020/12/27 03:21:15;;;;;;;8.45;4.72;;;;;;;1.44;75.68;100062.25;4966291;28;20512;-50
2020/12/27 03:23:42;;;;;;;10.77;4.80;;;;;;;1.39;75.90;100063.69;4966642;28;20046;-49
2020/12/27 03:26:09;;;;;;;8.05;4.97;;;;;;;1.44;75.12;100055.56;4965963;28;20046;-50
2020/12/27 03:28:36;;;;;;;7.43;4.25;;;;;;;1.44;75.75;100049.66;4965413;28;20113;-49
2020/12/27 03:31:02;;;;;;;5.93;4.55;;;;;;;1.45;75.56;100049.72;4966098;28;20504;-49
2020/12/27 03:33:29;;;;;;;8.90;5.22;;;;;;;1.44;75.88;100044.59;4966497;28;20523;-45
2020/12/27 03:35:55;;;;;;;10.13;5.22;;;;;;;1.35;75.91;100042.47;4966199;28;20043;-48
2020/12/27 03:38:23;;;;;;;8.60;4.55;;;;;;;1.40;75.46;100033.50;4965733;28;20066;-52
2020/12/27 03:40:49;;;;;;;6.50;5.30;;;;;;;1.39;75.70;100041.84;4965895;28;20053;-48
2020/12/27 03:43:15;;;;;;;7.13;4.53;;;;;;;1.37;75.64;100029.94;4965800;28;20548;-53
2020/12/27 03:45:42;;;;;;;8.60;5.72;;;;;;;1.17;76.56;100039.84;4965532;28;20074;-52
2020/12/27 03:48:08;;;;;;;8.90;5.60;;;;;;;1.37;75.31;100042.53;4965434;28;20055;-50
2020/12/27 03:50:35;;;;;;;8.20;5.00;;;;;;;1.38;75.18;100031.66;4965704;28;20054;-51
2020/12/27 03:53:02;;;;;;;8.77;4.55;;;;;;;1.35;75.33;100036.56;4965658;28;20134;-47
2020/12/27 03:55:28;;;;;;;7.00;4.93;;;;;;;1.31;75.60;100027.97;4965764;28;20054;-53
2020/12/27 03:57:54;;;;;;;7.40;5.57;;;;;;;1.36;75.01;100033.25;4969160;28;20051;-50
2020/12/27 04:00:21;;;;;;;8.65;5.40;;;;;;;1.32;75.46;100026.31;4965478;28;20473;-51
2020/12/27 04:02:47;;;;;;;9.02;5.80;;;;;;;1.28;75.16;100023.63;4969773;28;20467;-52
2020/12/27 04:05:14;;;;;;;7.47;5.13;;;;;;;1.41;74.91;100019.22;4969530;28;20043;-51
2020/12/27 04:07:40;;;;;;;8.20;5.55;;;;;;;1.32;75.36;100018.75;4969748;28;20141;-50
2020/12/27 04:10:15;;;;;;;8.23;5.35;;;;;;;1.32;75.43;100017.09;4969731;28;20134;-46
2020/12/27 04:12:41;;;;;;;7.85;5.38;;;;;;;1.35;74.94;100007.16;4969385;28;20101;-52
2020/12/27 04:15:08;;;;;;;11.13;5.47;;;;;;;1.28;74.87;100002.59;4968032;28;20105;-48
2020/12/27 04:17:35;;;;;;;8.10;5.80;;;;;;;1.32;75.18;100003.63;4969340;28;20646;-47
2020/12/27 04:20:02;;;;;;;8.90;5.97;;;;;;;1.25;74.83;100004.97;4969686;28;20050;-47
2020/12/27 04:22:28;;;;;;;8.80;5.85;;;;;;;1.28;74.71;99988.31;4969373;28;20101;-46
2020/12/27 04:24:55;;;;;;;9.02;5.80;;;;;;;1.34;74.68;99991.94;4969240;28;20054;-49
2020/12/27 04:27:21;;;;;;;11.77;5.50;;;;;;;1.33;74.74;99980.97;4964627;28;20144;-50
2020/12/27 04:29:48;;;;;;;9.80;5.70;;;;;;;1.34;74.75;99972.66;4969145;28;20452;-49
2020/12/27 04:32:15;;;;;;;10.13;5.80;;;;;;;1.23;75.34;99954.44;4969083;28;20050;-51
2020/12/27 04:34:41;;;;;;;10.20;6.43;;;;;;;1.28;75.10;99955.53;4969013;28;20055;-48
2020/12/27 04:37:23;;;;;;;8.93;6.00;;;;;;;1.14;75.29;99931.28;4965618;28;20043;-54
2020/12/27 04:39:50;;;;;;;9.30;6.30;;;;;;;1.18;75.50;99932.31;4969167;28;20497;-52
2020/12/27 04:42:17;;;;;;;9.63;6.03;;;;;;;1.15;75.76;99922.91;4969090;28;20051;-49
2020/12/27 04:44:44;;;;;;;10.60;6.15;;;;;;;1.12;76.28;99920.25;4969569;28;20054;-51
2020/12/27 04:47:12;;;;;;;7.53;5.30;;;;;;;1.17;76.33;99921.34;4969709;28;20128;-55
2020/12/27 04:49:39;;;;;;;10.18;5.75;;;;;;;1.02;76.71;99908.84;4969346;28;20054;-54
2020/12/27 04:52:09;;;;;;;10.27;5.45;;;;;;;1.08;76.49;99903.25;4969057;28;20105;-46
2020/12/27 04:54:37;;;;;;;9.95;5.47;;;;;;;1.07;76.32;99885.53;4968747;28;20055;-52
2020/12/27 04:57:03;;;;;;;9.57;5.68;;;;;;;1.03;76.80;99894.59;4968643;28;20050;-48
2020/12/27 04:59:30;;;;;;;11.07;6.03;;;;;;;1.04;76.60;99887.88;4969204;28;20654;-49
2020/12/27 05:01:56;;;;;;;10.68;6.30;;;;;;;0.99;76.71;99877.56;4968586;28;20046;-52
2020/12/27 05:04:27;;;;;;;10.25;6.00;;;;;;;1.00;76.69;99879.28;4968660;28;20051;-47
2020/12/27 05:06:54;;;;;;;12.90;5.93;;;;;;;0.97;76.49;99872.47;4965341;28;20553;-50
2020/12/27 05:09:25;;;;;;;11.55;5.10;;;;;;;0.94;76.97;99869.78;4964284;28;20106;-48
2020/12/27 05:11:53;;;;;;;9.93;5.97;;;;;;;0.82;76.95;99866.63;4968524;28;20472;-50
2020/12/27 05:14:28;;;;;;;12.65;5.30;;;;;;;0.90;76.96;99860.31;4968349;28;20058;-54
2020/12/27 05:16:57;;;;;;;8.95;5.90;;;;;;;0.90;76.85;99867.03;4965452;28;20552;-48
2020/12/27 05:19:24;;;;;;;10.35;5.55;;;;;;;0.88;76.46;99864.44;4964272;28;20606;-48
2020/12/27 05:21:53;;;;;;;7.38;4.95;;;;;;;0.87;76.14;99851.75;4967895;28;20536;-49
2020/12/27 05:24:20;;;;;;;12.18;5.60;;;;;;;0.88;75.93;99855.97;4967946;28;20131;-50
2020/12/27 05:26:47;;;;;;;9.38;5.30;;;;;;;0.73;76.29;99851.91;4967671;28;20047;-48
2020/12/27 05:29:30;;;;;;;12.73;6.78;;;;;;;0.81;76.37;99851.44;4968250;28;20097;-49
2020/12/27 05:31:58;;;;;;;8.52;5.00;;;;;;;0.81;76.28;99849.78;4965515;28;20043;-52
2020/12/27 05:34:26;;;;;;;8.82;4.88;;;;;;;0.87;75.98;99847.56;4968210;28;20105;-47
2020/12/27 05:36:56;;;;;;;9.35;5.53;;;;;;;0.81;75.55;99853.97;4968137;28;20054;-52
2020/12/27 05:39:22;;;;;;;8.90;5.07;;;;;;;0.85;74.76;99840.72;4964429;28;20441;-48
2020/12/27 05:41:49;;;;;;;10.45;5.32;;;;;;;0.81;74.98;99848.91;4968005;28;20078;-52
2020/12/27 05:44:19;;;;;;;8.48;4.70;;;;;;;0.88;74.25;99849.31;4968220;28;20047;-53
2020/12/27 05:46:46;;;;;;;10.48;4.78;;;;;;;0.96;74.56;99834.56;4967578;28;20055;-46
2020/12/27 05:49:13;;;;;;;9.02;5.25;;;;;;;0.87;74.83;99822.34;4967733;28;20061;-48
2020/12/27 05:51:51;;;;;;;8.95;4.60;;;;;;;0.81;74.79;99817.03;4967653;28;20060;-46
2020/12/27 05:54:29;;;;;;;8.50;4.72;;;;;;;0.94;74.14;99804.25;4967884;28;20046;-48
2020/12/27 05:56:58;;;;;;;9.50;5.18;;;;;;;0.87;74.71;99807.25;4964826;28;20046;-46
2020/12/27 05:59:30;;;;;;;9.32;4.28;;;;;;;0.84;74.32;99799.56;4967700;28;20121;-49
2020/12/27 06:01:57;;;;;;;8.88;4.78;;;;;;;0.83;74.83;99796.94;4965166;28;20066;-47
2020/12/27 06:04:58;;;;;;;8.32;4.43;;;;;;;0.77;75.33;99789.94;4967733;28;20042;-46
2020/12/27 06:07:39;;;;;;;7.47;4.35;;;;;;;0.77;75.32;99787.41;4963219;28;20058;-52
2020/12/27 06:10:08;;;;;;;5.90;4.47;;;;;;;0.70;74.98;99783.75;4966145;28;20517;-46
2020/12/27 06:12:58;;;;;;;6.18;4.50;;;;;;;0.83;74.79;99782.69;4967400;28;20105;-47
2020/12/27 06:15:29;;;;;;;6.30;4.25;;;;;;;0.69;75.63;99776.09;4934563;28;20106;-47
2020/12/27 06:18:12;;;;;;;7.90;4.75;;;;;;;0.59;76.22;99768.88;4945143;28;20092;-50
2020/12/27 06:20:43;;;;;;;6.35;4.15;;;;;;;0.58;75.80;99752.88;4966402;28;20068;-48
2020/12/27 06:23:11;;;;;;;7.93;4.88;;;;;;;0.59;75.87;99744.53;4967218;28;20250;-49
2020/12/27 06:25:39;;;;;;;9.30;4.72;;;;;;;0.66;75.42;99738.16;4966538;28;20105;-52
2020/12/27 06:28:07;;;;;;;6.97;4.53;;;;;;;0.61;75.29;99737.94;4966405;28;20069;-53
2020/12/27 06:30:42;;;;;;;5.28;4.20;;;;;;;0.40;76.19;99722.59;4966857;28;20050;-47
2020/12/27 06:33:20;;;;;;;6.90;4.22;;;;;;;0.38;77.09;99730.88;4967572;28;20844;-47
2020/12/27 06:35:47;;;;;;;6.43;3.72;;;;;;;0.62;75.46;99722.03;4966718;28;20504;-50
2020/12/27 06:38:16;;;;;;;7.85;4.25;;;;;;;0.42;75.58;99720.19;4966623;28;20509;-49
2020/12/27 06:40:53;;;;;;;9.48;4.13;;;;;;;0.58;75.10;99717.63;4966515;28;20074;-48
2020/12/27 06:43:22;;;;;;;8.90;4.05;;;;;;;0.43;75.30;99707.66;4967080;28;20069;-49
2020/12/27 06:45:49;;;;;;;8.25;3.95;;;;;;;0.47;75.69;99688.53;4966690;28;20079;-49
2020/12/27 06:48:31;;;;;;;6.40;3.70;;;;;;;0.51;74.58;99682.88;4966492;28;20124;-45
2020/12/27 06:50:58;;;;;;;5.07;3.53;;;;;;;0.54;74.13;99677.09;4964380;28;20047;-49
2020/12/27 06:53:42;;;;;;;6.20;3.22;;;;;;;0.46;73.93;99679.22;4966531;28;20046;-52
2020/12/27 06:56:13;;;;;;;8.43;3.60;;;;;;;0.40;74.37;99672.25;4965701;28;20065;-51
2020/12/27 06:58:50;;;;;;;6.55;3.53;;;;;;;0.41;74.06;99666.41;4966344;28;20050;-52
2020/12/27 07:01:22;;;;;;;6.68;3.90;;;;;;;0.47;73.75;99664.22;4964577;28;20043;-52
2020/12/27 07:03:48;;;;;;;5.43;3.70;;;;;;;0.28;73.56;99645.59;4966483;28;20082;-55
2020/12/27 07:06:16;;;;;;;6.20;3.45;;;;;;;0.34;73.11;99645.91;4966281;28;20441;-53
2020/12/27 07:09:00;;;;;;;5.00;3.53;;;;;;;0.38;73.08;99638.59;4964558;28;20042;-46
2020/12/27 07:11:30;;;;;;;8.57;3.45;;;;;;;0.45;72.14;99652.31;4965859;28;20058;-48
2020/12/27 07:13:57;;;;;;;5.35;3.72;;;;;;;0.48;71.41;99647.44;4964048;28;20069;-48
2020/12/27 07:16:35;;;;;;;6.03;3.30;;;;;;;0.33;71.70;99645.06;4966085;28;20062;-51
2020/12/27 07:19:05;;;;;;;6.35;3.80;;;;;;;0.46;70.73;99634.81;4964681;28;20105;-46
2020/12/27 07:21:36;;;;;;;4.05;2.72;;;;;;;0.41;71.03;99626.13;4966492;28;20095;-48
2020/12/27 07:24:18;;;;;;;5.22;2.60;;;;;;;0.52;70.15;99624.16;4966381;28;20077;-49
2020/12/27 07:26:46;;;;;;;5.43;2.95;;;;;;;0.48;69.88;99627.31;4965744;28;20054;-47
2020/12/27 07:29:22;;;;;;;3.28;2.38;;;;;;;0.59;69.48;99628.69;4964803;28;20141;-44
2020/12/27 07:31:51;;;;;;;4.32;3.03;;;;;;;0.55;69.57;99613.34;4965443;28;20058;-47
2020/12/27 07:34:24;;;;;;;6.85;2.70;;;;;;;0.52;68.23;99626.66;4959951;28;20109;-49
2020/12/27 07:37:03;;;;;;;8.70;3.30;;;;;;;0.52;68.08;99629.19;4964054;28;20093;-48
2020/12/27 07:39:49;;;;;;;6.90;3.22;;;;;;;0.50;68.25;99634.13;4960172;28;20058;-48
2020/12/27 07:42:41;;;;;;;6.88;3.30;;;;;;;0.53;67.94;99630.91;4964471;28;20046;-53
2020/12/27 07:45:13;;;;;;;6.38;2.75;;;;;;;0.58;68.39;99631.13;4963023;28;20039;-51
2020/12/27 07:47:41;;;;;;;5.93;2.90;;;;;;;0.50;68.01;99624.06;4962797;28;20058;-47
2020/12/27 07:50:10;;;;;;;3.00;2.28;;;;;;;0.57;67.66;99615.16;4962474;28;20054;-47
2020/12/27 07:52:43;;;;;;;10.60;2.85;;;;;;;0.57;67.08;99616.81;4963228;28;20042;-46
2020/12/27 07:55:09;;;;;;;4.38;2.45;;;;;;;0.59;66.53;99611.03;4963837;28;20117;-48
2020/12/27 07:57:36;;;;;;;6.05;2.78;;;;;;;0.63;66.26;99599.47;4963237;28;20465;-46
2020/12/27 08:00:07;;;;;;;3.42;2.42;;;;;;;0.63;66.33;99595.28;4962984;28;20070;-47
2020/12/27 08:02:34;;;;;;;4.20;3.08;;;;;;;0.68;66.04;99595.50;4963257;28;20073;-49
2020/12/27 08:05:01;;;;;;;5.22;2.92;;;;;;;0.65;66.28;99598.75;4964566;28;20051;-47
2020/12/27 08:07:28;;;;;;;4.95;2.40;;;;;;;0.67;66.15;99604.72;4963006;28;20050;-46
2020/12/27 08:09:55;;;;;;;3.42;2.72;;;;;;;0.63;65.83;99561.69;4962553;28;20055;-48
2020/12/27 08:12:22;;;;;;;4.38;2.53;;;;;;;0.75;65.58;99593.34;4963402;28;20845;-46
2020/12/27 08:14:48;;;;;;;4.38;2.63;;;;;;;0.65;65.11;99593.72;4964238;28;20043;-46
2020/12/27 08:17:15;;;;;;;3.70;2.80;;;;;;;0.82;65.03;99589.44;4963862;28;20105;-50
2020/12/27 08:19:42;;;;;;;5.00;2.90;;;;;;;0.81;65.02;99589.41;4963935;28;20051;-49
2020/12/27 08:22:09;;;;;;;6.18;3.30;;;;;;;0.82;64.75;99586.94;4965513;28;20063;-48
2020/12/27 08:24:35;;;;;;;4.20;2.55;;;;;;;0.80;64.65;99575.94;4965585;28;20098;-48
2020/12/27 08:27:02;;;;;;;4.15;2.42;;;;;;;0.87;64.30;99572.88;4964980;28;20043;-46
2020/12/27 08:29:28;;;;;;;3.80;2.30;;;;;;;0.84;64.18;99567.72;4965618;28;20125;-46
2020/12/27 08:32:04;;;;;;;6.13;2.78;;;;;;;0.92;63.92;99546.25;4961129;28;20058;-48
2020/12/27 08:34:32;;;;;;;3.67;1.92;;;;;;;0.92;63.22;99563.03;4962756;28;20435;-46
2020/12/27 08:36:59;;;;;;;5.18;2.85;;;;;;;0.93;63.67;99555.56;4965120;28;20494;-46
2020/12/27 08:39:45;;;;;;;5.50;2.92;;;;;;;1.07;63.68;99550.28;4965181;28;20681;-50
2020/12/27 08:42:24;;;;;;;5.82;2.80;;;;;;;0.95;63.13;99558.13;4965323;28;20127;-49
2020/12/27 08:45:03;;;;;;;7.60;2.50;;;;;;;0.93;63.03;99558.06;4968815;28;20142;-47
2020/12/27 08:47:44;;;;;;;5.97;2.22;;;;;;;0.99;63.40;99543.22;4965899;28;20055;-51
2020/12/27 08:50:16;;;;;;;4.32;2.47;;;;;;;1.14;62.76;99527.91;4968803;28;20065;-48
2020/12/27 08:52:53;;;;;;;5.68;3.00;;;;;;;1.09;61.63;99538.59;4968589;28;20406;-49
2020/12/27 08:55:27;;;;;;;4.22;2.55;;;;;;;1.20;62.47;99537.38;4964522;28;20568;-47
2020/12/27 08:57:57;;;;;;;3.60;2.35;;;;;;;1.11;62.80;99547.97;4965669;28;20057;-49
2020/12/27 09:00:36;;;;;;;3.35;2.42;;;;;;;1.32;61.53;99548.03;4964089;28;22236;-46
2020/12/27 09:03:07;;;;;;;4.35;2.22;;;;;;;1.42;62.47;99529.97;4967365;28;20109;-47
2020/12/27 09:05:35;;;;;;;6.18;2.50;;;;;;;1.53;60.90;99535.50;4968308;28;20461;-50
2020/12/27 09:08:18;;;;;;;4.25;2.70;;;;;;;1.74;60.81;99522.91;4968995;28;20074;-47
2020/12/27 09:10:45;;;;;;;4.55;2.67;;;;;;;2.02;60.35;99512.28;4968300;28;20089;-54
2020/12/27 09:13:13;;;;;;;5.43;3.28;;;;;;;2.38;58.30;99510.38;4968858;28;20054;-44
2020/12/27 09:15:49;;;;;;;4.65;3.20;;;;;;;2.34;58.93;99507.66;4967664;28;20109;-51
2020/12/27 09:18:26;;;;;;;6.63;2.88;;;;;;;2.39;58.35;99501.97;4968663;28;20058;-47
2020/12/27 09:21:06;;;;;;;6.20;3.03;;;;;;;2.32;58.40;99506.75;4968742;28;20051;-50
2020/12/27 09:23:33;;;;;;;5.13;2.85;;;;;;;2.28;59.04;99490.63;4965031;28;20050;-50
2020/12/27 09:26:08;;;;;;;4.03;2.53;;;;;;;1.91;60.16;99485.75;4967505;28;20051;-51
2020/12/27 09:28:37;;;;;;;4.05;2.88;;;;;;;1.90;59.59;99500.03;4967185;28;20047;-48
2020/12/27 09:31:09;;;;;;;3.03;2.55;;;;;;;1.86;59.32;99503.25;4968180;28;20575;-49
2020/12/27 09:33:39;;;;;;;4.05;2.63;;;;;;;1.55;60.02;99501.09;4967350;28;20445;-50
2020/12/27 09:36:10;;;;;;;3.20;2.78;;;;;;;1.56;59.88;99514.56;4967960;28;20129;-47
2020/12/27 09:38:39;;;;;;;5.13;3.58;;;;;;;1.60;60.36;99509.72;4967081;28;20051;-45
2020/12/27 09:41:10;;;;;;;4.47;2.50;;;;;;;1.69;60.25;99509.25;4967598;28;20219;-47
2020/12/27 09:43:55;;;;;;;3.80;2.53;;;;;;;1.57;59.14;99504.53;4968276;28;20117;-48
2020/12/27 09:46:49;;;;;;;5.53;2.63;;;;;;;1.49;60.26;99505.91;4964342;28;20058;-46
2020/12/27 09:49:26;;;;;;;4.40;2.70;;;;;;;1.56;60.32;99505.34;4963980;28;20652;-47
2020/12/27 09:52:11;;;;;;;6.07;3.15;;;;;;;1.51;60.03;99494.19;4964525;28;20054;-49
2020/12/27 09:54:40;;;;;;;4.68;3.25;;;;;;;1.49;60.85;99489.09;4963621;28;20405;-48
2020/12/27 09:57:18;;;;;;;6.88;3.20;;;;;;;1.61;60.28;99486.22;4967295;28;20055;-48
2020/12/27 09:59:47;;;;;;;3.60;2.60;;;;;;;1.40;60.43;99482.81;4960629;28;20078;-46
2020/12/27 10:02:15;;;;;;;5.18;3.13;;;;;;;1.57;60.02;99474.25;4966125;28;20070;-46
2020/12/27 10:04:41;;;;;;;5.00;3.10;;;;;;;1.57;60.20;99463.31;4966969;28;20086;-48
2020/12/27 10:07:07;;;;;;;4.28;2.90;;;;;;;1.67;60.42;99461.25;4964949;28;20054;-48
2020/12/27 10:09:34;;;;;;;5.60;2.60;;;;;;;1.41;60.41;99452.59;4962889;28;20129;-47
2020/12/27 10:12:02;;;;;;;5.07;2.80;;;;;;;1.52;59.76;99448.84;4965386;28;20047;-47
2020/12/27 10:14:29;;;;;;;4.75;2.53;;;;;;;1.48;60.33;99441.97;4968270;28;20053;-49
2020/12/27 10:17:00;;;;;;;4.57;2.47;;;;;;;1.59;59.30;99437.38;4967626;28;20464;-48
2020/12/27 10:19:30;;;;;;;4.68;2.75;;;;;;;1.55;59.78;99430.47;4967175;28;20070;-45
2020/12/27 10:21:57;;;;;;;4.03;2.67;;;;;;;1.57;60.37;99433.91;4967143;28;20074;-46
2020/12/27 10:24:24;;;;;;;4.95;2.67;;;;;;;1.65;59.11;99417.41;4965554;28;20409;-51
2020/12/27 10:26:51;;;;;;;5.88;2.65;;;;;;;1.58;59.45;99419.66;4964912;28;20129;-48
2020/12/27 10:29:18;;;;;;;3.85;2.45;;;;;;;1.58;59.04;99402.84;4964840;28;20070;-52
2020/12/27 10:31:52;;;;;;;5.22;2.70;;;;;;;1.71;58.88;99397.50;4966603;28;20105;-50
2020/12/27 10:34:19;;;;;;;4.45;2.15;;;;;;;1.68;58.58;99383.91;4966257;28;20051;-48
2020/12/27 10:36:47;;;;;;;3.95;2.20;;;;;;;1.75;58.20;99373.22;4966072;28;20047;-47
2020/12/27 10:39:14;;;;;;;4.03;2.00;;;;;;;1.76;57.50;99372.47;4965789;28;20043;-50
2020/12/27 10:41:42;;;;;;;3.42;2.13;;;;;;;1.72;57.71;99374.00;4966139;28;20050;-49
2020/12/27 10:44:09;;;;;;;2.67;2.00;;;;;;;1.68;58.85;99371.28;4966026;28;20057;-53
2020/12/27 10:46:36;;;;;;;3.88;2.22;;;;;;;1.77;57.77;99359.03;4965934;28;20062;-49
2020/12/27 10:49:03;;;;;;;2.20;1.88;;;;;;;1.75;57.66;99358.94;4966971;28;20051;-49
2020/12/27 10:51:37;;;;;;;2.85;2.20;;;;;;;1.73;57.27;99344.56;4966286;28;20101;-50
2020/12/27 10:54:04;;;;;;;3.78;2.20;;;;;;;1.88;57.74;99352.72;4962567;28;20274;-47
2020/12/27 10:56:32;;;;;;;8.45;2.35;;;;;;;1.83;58.04;99344.13;4964152;28;20054;-47
2020/12/27 10:58:59;;;;;;;3.38;1.65;;;;;;;1.88;56.33;99347.69;4969141;28;20070;-48
2020/12/27 11:01:26;;;;;;;4.47;2.38;;;;;;;1.89;55.92;99330.88;4966257;28;20473;-47
2020/12/27 11:03:52;;;;;;;2.65;1.98;;;;;;;1.85;56.29;99323.97;4966464;28;20070;-50
2020/12/27 11:06:26;;;;;;;2.92;2.20;;;;;;;2.02;57.07;99320.44;4965868;28;20144;-52
2020/12/27 11:08:53;;;;;;;5.60;2.70;;;;;;;2.06;56.42;99304.59;4966598;28;20054;-47
2020/12/27 11:11:32;;;;;;;3.92;1.98;;;;;;;2.03;55.65;99309.53;4963323;28;20050;-54
2020/12/27 11:13:58;;;;;;;2.45;2.10;;;;;;;2.01;57.26;99283.38;4965913;28;20062;-50
2020/12/27 11:16:24;;;;;;;4.70;1.67;;;;;;;2.03;55.58;99284.28;4965225;28;20562;-50
2020/12/27 11:18:51;;;;;;;4.13;1.90;;;;;;;2.09;54.39;99289.56;4966324;28;20047;-49
2020/12/27 11:21:17;;;;;;;2.42;1.90;;;;;;;2.17;54.99;99274.69;4962032;28;20039;-47
2020/12/27 11:23:44;;;;;;;3.83;2.13;;;;;;;2.06;54.55;99263.34;4963945;28;20050;-47
2020/12/27 11:26:15;;;;;;;1.90;1.50;;;;;;;1.98;55.87;99260.53;4965934;28;20144;-47
2020/12/27 11:28:41;;;;;;;2.90;1.55;;;;;;;2.20;54.29;99245.38;4960691;28;20081;-48
2020/12/27 11:31:08;;;;;;;3.83;1.85;;;;;;;2.04;55.80;99246.50;4964787;28;20133;-49
2020/12/27 11:33:35;;;;;;;3.33;1.90;;;;;;;2.20;54.86;99245.38;4964726;28;20508;-50
2020/12/27 11:36:01;;;;;;;2.30;1.73;;;;;;;2.11;55.91;99223.97;4966439;28;20110;-49
2020/12/27 11:38:27;;;;;;;3.05;1.73;;;;;;;2.15;54.49;99231.72;4965325;28;20113;-49
2020/12/27 11:40:54;;;;;;;3.00;1.70;;;;;;;2.24;55.05;99218.56;4962047;28;20051;-48
2020/12/27 11:43:20;;;;;;;6.45;1.80;;;;;;;2.28;54.55;99207.75;4965968;28;20200;-48
2020/12/27 11:45:46;;;;;;;2.33;1.70;;;;;;;2.28;54.36;99200.19;4965966;28;20172;-47
2020/12/27 11:48:13;;;;;;;3.13;1.65;;;;;;;2.25;54.04;99185.78;4966132;28;20077;-50